Etusivu
METAR-TAF:

METAR-TAF

Lentoasemat :

Ängelholm-Helsingborgin lentoasema

Helsingborg, Ruotsi

Leveyspiiri: 56-17-46N, Pituuspiiri: 012-50-50E, korkeus merenpinnasta: 21 m

Tämänhetkinen sää

Tämä raportti tehtiin 29 minuuttia sitten, kello 13.20 UTC
Tuuli 15 kn koillisesta
Lämpötila 6°C
Kosteus 31%
Ilmanpaine 1024 hPa
Näkyvyys 10 km tai enemmän

METAR: ESTA 301320Z AUTO 05015KT 9999 NCD 06/M10 Q1024

Aika: 15:49 (13:49 UTC)

Sääennuste

Tämä raportti tehtiin 8 tuntia ja 48 minuuttia sitten, kello 05.01 UTC
Ennuste voimassa 30. päivästä klo 06 UTC - 30. päivään klo 09 UTC
Tuuli 7 kn pohjoisesta/koillisesta
Näkyvyys 10 km tai enemmän
Hajanaisia pilviä 3000 ft:n korkeudessa

TAF: ESTA 300501Z 3006/3009 02007KT 9999 SCT030

Säähavainnot ja -ennusteet yli 4000 lentoasemalta (METAR- ja TAF-raportit).

Käytössä olevat sääasemat on merkitty karttaan keltaisilla ja punaisilla pisteillä.

Aseta hiiri pisteen päälle nähdäksesi sääaseman nimen.

Klikkaa sitten nähdäksesi säähavainnot ja -ennusteet.

Kartan vaihtaminen: klikkaa mustalla rastilla varustettuja vihreitä pisteitä, niin voit zoomata sisään; viivalla varustettua vihreää pistettä, niin voit zoomata ulos tai vihreitä nuolia, niin pääset viereisille kartoille.


METAR-TAF: